sensor_id;sensor_type;location;lat;lon;timestamp;pressure;altitude;pressure_sealevel;temperature;humidity
19112;BME280;9688;51.906;8.376;2024-03-17T00:01:12;101553.81;;;8.59;95.76
19112;BME280;9688;51.906;8.376;2024-03-17T00:03:58;101547.63;;;8.60;95.98
19112;BME280;9688;51.906;8.376;2024-03-17T00:06:43;101553.75;;;8.61;95.57
19112;BME280;9688;51.906;8.376;2024-03-17T00:09:28;101558.16;;;8.62;96.21
19112;BME280;9688;51.906;8.376;2024-03-17T00:12:14;101551.13;;;8.61;96.00
19112;BME280;9688;51.906;8.376;2024-03-17T00:15:00;101546.72;;;8.63;96.15
19112;BME280;9688;51.906;8.376;2024-03-17T00:17:45;101547.56;;;8.63;95.92
19112;BME280;9688;51.906;8.376;2024-03-17T00:20:30;101542.34;;;8.62;96.15
19112;BME280;9688;51.906;8.376;2024-03-17T00:23:15;101541.50;;;8.60;96.32
19112;BME280;9688;51.906;8.376;2024-03-17T00:26:01;101538.09;;;8.52;96.90
19112;BME280;9688;51.906;8.376;2024-03-17T00:28:47;101548.69;;;8.47;96.96
19112;BME280;9688;51.906;8.376;2024-03-17T00:31:34;101540.91;;;8.38;97.33
19112;BME280;9688;51.906;8.376;2024-03-17T00:34:18;101547.19;;;8.27;97.82
19112;BME280;9688;51.906;8.376;2024-03-17T00:37:04;101540.28;;;8.20;98.42
19112;BME280;9688;51.906;8.376;2024-03-17T00:39:49;101536.81;;;8.17;98.36
19112;BME280;9688;51.906;8.376;2024-03-17T00:42:35;101538.63;;;8.13;98.83
19112;BME280;9688;51.906;8.376;2024-03-17T00:45:21;101540.44;;;8.08;98.86
19112;BME280;9688;51.906;8.376;2024-03-17T00:48:06;101537.84;;;8.05;98.97
19112;BME280;9688;51.906;8.376;2024-03-17T00:50:55;101534.34;;;8.03;98.88
19112;BME280;9688;51.906;8.376;2024-03-17T00:53:39;101539.66;;;8.01;99.26
19112;BME280;9688;51.906;8.376;2024-03-17T00:56:25;101536.16;;;7.99;99.24
19112;BME280;9688;51.906;8.376;2024-03-17T00:59:11;101530.00;;;8.00;99.32
19112;BME280;9688;51.906;8.376;2024-03-17T01:01:57;101526.53;;;7.97;99.45
19112;BME280;9688;51.906;8.376;2024-03-17T01:04:43;101526.56;;;7.95;99.26
19112;BME280;9688;51.906;8.376;2024-03-17T01:07:27;101517.81;;;7.92;99.38
19112;BME280;9688;51.906;8.376;2024-03-17T01:10:14;101521.41;;;7.88;99.64
19112;BME280;9688;51.906;8.376;2024-03-17T01:12:58;101519.69;;;7.83;99.72
19112;BME280;9688;51.906;8.376;2024-03-17T01:15:43;101521.53;;;7.77;99.82
19112;BME280;9688;51.906;8.376;2024-03-17T01:18:29;101508.47;;;7.69;99.68
19112;BME280;9688;51.906;8.376;2024-03-17T01:21:15;101515.53;;;7.64;99.82
19112;BME280;9688;51.906;8.376;2024-03-17T01:23:59;101510.31;;;7.61;100.00
19112;BME280;9688;51.906;8.376;2024-03-17T01:26:45;101511.25;;;7.57;100.00
19112;BME280;9688;51.906;8.376;2024-03-17T01:29:29;101512.16;;;7.53;100.00
19112;BME280;9688;51.906;8.376;2024-03-17T01:32:14;101506.94;;;7.50;100.00
19112;BME280;9688;51.906;8.376;2024-03-17T01:35:00;101496.50;;;7.44;100.00
19112;BME280;9688;51.906;8.376;2024-03-17T01:37:46;101493.94;;;7.37;100.00
19112;BME280;9688;51.906;8.376;2024-03-17T01:40:30;101494.88;;;7.32;100.00
19112;BME280;9688;51.906;8.376;2024-03-17T01:43:15;101496.69;;;7.27;100.00
19112;BME280;9688;51.906;8.376;2024-03-17T01:46:00;101493.22;;;7.22;100.00
19112;BME280;9688;51.906;8.376;2024-03-17T01:48:46;101488.00;;;7.17;100.00
19112;BME280;9688;51.906;8.376;2024-03-17T01:51:33;101479.28;;;7.13;100.00
19112;BME280;9688;51.906;8.376;2024-03-17T01:54:18;101477.56;;;7.11;100.00
19112;BME280;9688;51.906;8.376;2024-03-17T01:57:03;101485.47;;;7.06;100.00
19112;BME280;9688;51.906;8.376;2024-03-17T01:59:48;101472.41;;;7.02;100.00
19112;BME280;9688;51.906;8.376;2024-03-17T02:02:33;101475.91;;;7.01;100.00
19112;BME280;9688;51.906;8.376;2024-03-17T02:05:18;101472.44;;;6.97;100.00
19112;BME280;9688;51.906;8.376;2024-03-17T02:08:04;101467.22;;;6.94;100.00
19112;BME280;9688;51.906;8.376;2024-03-17T02:10:52;101458.50;;;6.90;100.00
19112;BME280;9688;51.906;8.376;2024-03-17T02:13:37;101459.34;;;6.89;100.00
19112;BME280;9688;51.906;8.376;2024-03-17T02:16:22;101460.28;;;6.85;100.00
19112;BME280;9688;51.906;8.376;2024-03-17T02:19:07;101459.47;;;6.82;100.00
19112;BME280;9688;51.906;8.376;2024-03-17T02:21:52;101463.84;;;6.78;100.00
19112;BME280;9688;51.906;8.376;2024-03-17T02:24:38;101465.66;;;6.76;100.00
19112;BME280;9688;51.906;8.376;2024-03-17T02:27:25;101462.16;;;6.74;100.00
19112;BME280;9688;51.906;8.376;2024-03-17T02:30:09;101462.19;;;6.71;100.00
19112;BME280;9688;51.906;8.376;2024-03-17T02:32:55;101468.38;;;6.65;100.00
19112;BME280;9688;51.906;8.376;2024-03-17T02:35:39;101469.28;;;6.58;100.00
19112;BME280;9688;51.906;8.376;2024-03-17T02:38:24;101467.56;;;6.51;100.00
19112;BME280;9688;51.906;8.376;2024-03-17T02:41:25;101467.63;;;6.45;100.00
19112;BME280;9688;51.906;8.376;2024-03-17T02:44:10;101467.69;;;6.39;100.00
19112;BME280;9688;51.906;8.376;2024-03-17T02:46:56;101471.22;;;6.35;100.00
19112;BME280;9688;51.906;8.376;2024-03-17T02:49:41;101467.75;;;6.31;100.00
19112;BME280;9688;51.906;8.376;2024-03-17T02:52:27;101466.91;;;6.28;100.00
19112;BME280;9688;51.906;8.376;2024-03-17T02:55:12;101459.91;;;6.25;100.00
19112;BME280;9688;51.906;8.376;2024-03-17T02:57:59;101459.97;;;6.17;100.00
19112;BME280;9688;51.906;8.376;2024-03-17T03:00:44;101468.75;;;6.13;100.00
19112;BME280;9688;51.906;8.376;2024-03-17T03:03:30;101458.25;;;6.13;100.00
19112;BME280;9688;51.906;8.376;2024-03-17T03:06:16;101464.38;;;6.09;100.00
19112;BME280;9688;51.906;8.376;2024-03-17T03:09:03;101456.56;;;6.03;100.00
19112;BME280;9688;51.906;8.376;2024-03-17T03:11:49;101454.84;;;5.99;100.00
19112;BME280;9688;51.906;8.376;2024-03-17T03:14:37;101453.09;;;5.98;100.00
19112;BME280;9688;51.906;8.376;2024-03-17T03:17:22;101453.94;;;5.98;100.00
19112;BME280;9688;51.906;8.376;2024-03-17T03:20:09;101451.31;;;5.98;100.00
19112;BME280;9688;51.906;8.376;2024-03-17T03:22:56;101458.34;;;5.96;100.00
19112;BME280;9688;51.906;8.376;2024-03-17T03:25:41;101456.59;;;5.95;100.00
19112;BME280;9688;51.906;8.376;2024-03-17T03:28:26;101454.88;;;5.94;100.00
19112;BME280;9688;51.906;8.376;2024-03-17T03:31:13;101452.19;;;5.93;100.00
19112;BME280;9688;51.906;8.376;2024-03-17T03:33:59;101457.47;;;5.91;100.00
19112;BME280;9688;51.906;8.376;2024-03-17T03:36:45;101458.34;;;5.87;100.00
19112;BME280;9688;51.906;8.376;2024-03-17T03:39:31;101463.63;;;5.86;100.00
19112;BME280;9688;51.906;8.376;2024-03-17T03:42:16;101461.00;;;5.84;100.00
19112;BME280;9688;51.906;8.376;2024-03-17T03:45:01;101461.03;;;5.82;100.00
19112;BME280;9688;51.906;8.376;2024-03-17T03:47:47;101468.91;;;5.78;100.00
19112;BME280;9688;51.906;8.376;2024-03-17T03:50:33;101462.81;;;5.73;100.00
19112;BME280;9688;51.906;8.376;2024-03-17T03:53:18;101461.09;;;5.69;100.00
19112;BME280;9688;51.906;8.376;2024-03-17T03:56:05;101466.34;;;5.64;100.00
19112;BME280;9688;51.906;8.376;2024-03-17T03:58:51;101478.59;;;5.62;100.00
19112;BME280;9688;51.906;8.376;2024-03-17T04:01:36;101478.59;;;5.62;100.00
19112;BME280;9688;51.906;8.376;2024-03-17T04:04:23;101472.50;;;5.57;100.00
19112;BME280;9688;51.906;8.376;2024-03-17T04:07:08;101475.16;;;5.52;100.00
19112;BME280;9688;51.906;8.376;2024-03-17T04:09:53;101478.66;;;5.48;100.00
19112;BME280;9688;51.906;8.376;2024-03-17T04:12:39;101479.53;;;5.43;100.00
19112;BME280;9688;51.906;8.376;2024-03-17T04:15:25;101476.97;;;5.35;100.00
19112;BME280;9688;51.906;8.376;2024-03-17T04:18:10;101475.22;;;5.28;100.00
19112;BME280;9688;51.906;8.376;2024-03-17T04:21:01;101476.13;;;5.22;100.00
19112;BME280;9688;51.906;8.376;2024-03-17T04:23:47;101473.50;;;5.21;100.00
19112;BME280;9688;51.906;8.376;2024-03-17T04:26:33;101472.63;;;5.22;100.00
19112;BME280;9688;51.906;8.376;2024-03-17T04:29:18;101474.38;;;5.23;100.00
19112;BME280;9688;51.906;8.376;2024-03-17T04:32:06;101464.75;;;5.25;100.00
19112;BME280;9688;51.906;8.376;2024-03-17T04:34:51;101476.97;;;5.27;100.00
19112;BME280;9688;51.906;8.376;2024-03-17T04:37:38;101479.56;;;5.32;100.00
19112;BME280;9688;51.906;8.376;2024-03-17T04:40:24;101478.69;;;5.34;100.00
19112;BME280;9688;51.906;8.376;2024-03-17T04:43:09;101475.19;;;5.37;100.00
19112;BME280;9688;51.906;8.376;2024-03-17T04:45:59;101480.44;;;5.35;100.00
19112;BME280;9688;51.906;8.376;2024-03-17T04:48:45;101475.19;;;5.37;100.00
19112;BME280;9688;51.906;8.376;2024-03-17T04:51:30;101476.97;;;5.33;100.00
19112;BME280;9688;51.906;8.376;2024-03-17T04:54:18;101477.84;;;5.32;100.00
19112;BME280;9688;51.906;8.376;2024-03-17T04:57:03;101478.72;;;5.30;100.00
19112;BME280;9688;51.906;8.376;2024-03-17T04:59:49;101483.97;;;5.27;100.00
19112;BME280;9688;51.906;8.376;2024-03-17T05:02:34;101481.34;;;5.30;100.00
19112;BME280;9688;51.906;8.376;2024-03-17T05:05:19;101487.44;;;5.35;100.00
19112;BME280;9688;51.906;8.376;2024-03-17T05:08:05;101483.06;;;5.43;100.00
19112;BME280;9688;51.906;8.376;2024-03-17T05:10:57;101489.16;;;5.47;100.00
19112;BME280;9688;51.906;8.376;2024-03-17T05:13:42;101484.78;;;5.49;100.00
19112;BME280;9688;51.906;8.376;2024-03-17T05:16:28;101483.88;;;5.48;100.00
19112;BME280;9688;51.906;8.376;2024-03-17T05:19:14;101491.75;;;5.51;100.00
19112;BME280;9688;51.906;8.376;2024-03-17T05:22:01;101496.13;;;5.55;100.00
19112;BME280;9688;51.906;8.376;2024-03-17T05:24:46;101488.25;;;5.54;100.00
19112;BME280;9688;51.906;8.376;2024-03-17T05:27:34;101482.16;;;5.49;100.00
19112;BME280;9688;51.906;8.376;2024-03-17T05:30:19;101491.78;;;5.42;100.00
19112;BME280;9688;51.906;8.376;2024-03-17T05:33:04;101489.16;;;5.37;100.00
19112;BME280;9688;51.906;8.376;2024-03-17T05:35:49;101483.97;;;5.33;100.00
19112;BME280;9688;51.906;8.376;2024-03-17T05:38:36;101476.97;;;5.29;100.00
19112;BME280;9688;51.906;8.376;2024-03-17T05:41:21;101479.63;;;5.24;100.00
19112;BME280;9688;51.906;8.376;2024-03-17T05:44:11;101482.22;;;5.27;100.00
19112;BME280;9688;51.906;8.376;2024-03-17T05:46:56;101476.97;;;5.33;100.00
19112;BME280;9688;51.906;8.376;2024-03-17T05:49:42;101476.06;;;5.36;100.00
19112;BME280;9688;51.906;8.376;2024-03-17T05:52:27;101470.81;;;5.34;100.00
19112;BME280;9688;51.906;8.376;2024-03-17T05:55:12;101476.94;;;5.32;100.00
19112;BME280;9688;51.906;8.376;2024-03-17T05:57:57;101466.50;;;5.27;100.00
19112;BME280;9688;51.906;8.376;2024-03-17T06:00:44;101457.78;;;5.22;100.00
19112;BME280;9688;51.906;8.376;2024-03-17T06:03:30;101462.09;;;5.26;100.00
19112;BME280;9688;51.906;8.376;2024-03-17T06:06:15;101464.75;;;5.32;100.00
19112;BME280;9688;51.906;8.376;2024-03-17T06:09:00;101461.22;;;5.38;100.00
19112;BME280;9688;51.906;8.376;2024-03-17T06:11:48;101462.91;;;5.51;100.00
19112;BME280;9688;51.906;8.376;2024-03-17T06:14:34;101466.34;;;5.69;100.00
19112;BME280;9688;51.906;8.376;2024-03-17T06:17:21;101461.06;;;5.75;100.00
19112;BME280;9688;51.906;8.376;2024-03-17T06:20:07;101460.16;;;5.82;100.00
19112;BME280;9688;51.906;8.376;2024-03-17T06:22:56;101457.50;;;5.96;100.00
19112;BME280;9688;51.906;8.376;2024-03-17T06:25:41;101460.06;;;6.02;100.00
19112;BME280;9688;51.906;8.376;2024-03-17T06:28:27;101465.28;;;6.08;100.00
19112;BME280;9688;51.906;8.376;2024-03-17T06:31:12;101464.34;;;6.17;100.00
19112;BME280;9688;51.906;8.376;2024-03-17T06:33:58;101462.38;;;6.46;100.00
19112;BME280;9688;51.906;8.376;2024-03-17T06:36:44;101456.97;;;6.66;100.00
19112;BME280;9688;51.906;8.376;2024-03-17T06:39:30;101456.72;;;6.91;100.00
19112;BME280;9688;51.906;8.376;2024-03-17T06:42:16;101461.75;;;7.15;100.00
19112;BME280;9688;51.906;8.376;2024-03-17T06:45:01;101459.88;;;7.27;100.00
19112;BME280;9688;51.906;8.376;2024-03-17T06:47:46;101458.09;;;7.27;100.00
19112;BME280;9688;51.906;8.376;2024-03-17T06:50:33;101469.38;;;7.38;100.00
19112;BME280;9688;51.906;8.376;2024-03-17T06:53:18;101465.72;;;7.50;100.00
19112;BME280;9688;51.906;8.376;2024-03-17T06:56:04;101465.50;;;7.67;100.00
19112;BME280;9688;51.906;8.376;2024-03-17T06:58:50;101471.28;;;7.94;100.00
19112;BME280;9688;51.906;8.376;2024-03-17T07:01:35;101472.78;;;8.12;100.00
19112;BME280;9688;51.906;8.376;2024-03-17T07:04:20;101473.63;;;8.14;100.00
19112;BME280;9688;51.906;8.376;2024-03-17T07:07:07;101462.19;;;8.16;100.00
19112;BME280;9688;51.906;8.376;2024-03-17T07:09:52;101475.97;;;8.34;100.00
19112;BME280;9688;51.906;8.376;2024-03-17T07:12:37;101459.16;;;8.44;99.94
19112;BME280;9688;51.906;8.376;2024-03-17T07:15:22;101451.09;;;8.53;99.56
19112;BME280;9688;51.906;8.376;2024-03-17T07:18:08;101446.50;;;8.67;98.45
19112;BME280;9688;51.906;8.376;2024-03-17T07:20:53;101452.41;;;8.80;97.69
19112;BME280;9688;51.906;8.376;2024-03-17T07:23:42;101455.03;;;8.80;97.66
19112;BME280;9688;51.906;8.376;2024-03-17T07:26:27;101461.91;;;8.90;97.30
19112;BME280;9688;51.906;8.376;2024-03-17T07:29:13;101459.31;;;8.86;96.91
19112;BME280;9688;51.906;8.376;2024-03-17T07:31:58;101461.09;;;8.87;97.38
19112;BME280;9688;51.906;8.376;2024-03-17T07:34:43;101451.09;;;9.04;96.75
19112;BME280;9688;51.906;8.376;2024-03-17T07:37:28;101442.81;;;9.23;96.38
19112;BME280;9688;51.906;8.376;2024-03-17T07:40:15;101447.81;;;9.36;96.01
19112;BME280;9688;51.906;8.376;2024-03-17T07:43:00;101446.81;;;9.44;95.14
19112;BME280;9688;51.906;8.376;2024-03-17T07:45:45;101442.31;;;9.47;94.81
19112;BME280;9688;51.906;8.376;2024-03-17T07:48:32;101444.03;;;9.50;93.86
19112;BME280;9688;51.906;8.376;2024-03-17T07:51:18;101443.22;;;9.46;93.41
19112;BME280;9688;51.906;8.376;2024-03-17T07:54:04;101440.81;;;9.35;93.51
19112;BME280;9688;51.906;8.376;2024-03-17T07:56:51;101437.38;;;9.32;92.26
19112;BME280;9688;51.906;8.376;2024-03-17T07:59:36;101455.97;;;9.26;92.04
19112;BME280;9688;51.906;8.376;2024-03-17T08:02:21;101447.34;;;9.18;92.25
19112;BME280;9688;51.906;8.376;2024-03-17T08:05:07;101446.59;;;9.09;92.28
19112;BME280;9688;51.906;8.376;2024-03-17T08:07:53;101447.47;;;9.08;92.01
19112;BME280;9688;51.906;8.376;2024-03-17T08:10:38;101453.41;;;9.21;92.26
19112;BME280;9688;51.906;8.376;2024-03-17T08:13:25;101451.22;;;9.42;91.51
19112;BME280;9688;51.906;8.376;2024-03-17T08:16:14;101446.50;;;9.59;91.04
19112;BME280;9688;51.906;8.376;2024-03-17T08:18:59;101446.00;;;9.82;91.08
19112;BME280;9688;51.906;8.376;2024-03-17T08:21:44;101445.53;;;10.03;89.31
19112;BME280;9688;51.906;8.376;2024-03-17T08:24:30;101437.13;;;10.23;89.54
19112;BME280;9688;51.906;8.376;2024-03-17T08:27:15;101441.03;;;10.44;88.74
19112;BME280;9688;51.906;8.376;2024-03-17T08:30:02;101428.13;;;10.66;86.86
19112;BME280;9688;51.906;8.376;2024-03-17T08:32:47;101426.81;;;10.84;86.47
19112;BME280;9688;51.906;8.376;2024-03-17T08:35:32;101428.44;;;10.88;85.62
19112;BME280;9688;51.906;8.376;2024-03-17T08:38:20;101428.94;;;11.03;85.82
19112;BME280;9688;51.906;8.376;2024-03-17T08:41:08;101430.34;;;11.16;85.86
19112;BME280;9688;51.906;8.376;2024-03-17T08:43:54;101437.88;;;11.31;84.76
19112;BME280;9688;51.906;8.376;2024-03-17T08:46:40;101434.91;;;11.42;83.49
19112;BME280;9688;51.906;8.376;2024-03-17T08:49:25;101438.97;;;11.54;83.86
19112;BME280;9688;51.906;8.376;2024-03-17T08:52:11;101433.41;;;11.63;82.78
19112;BME280;9688;51.906;8.376;2024-03-17T08:54:56;101439.44;;;11.68;82.03
19112;BME280;9688;51.906;8.376;2024-03-17T08:57:41;101434.75;;;11.78;81.17
19112;BME280;9688;51.906;8.376;2024-03-17T09:00:27;101433.69;;;11.83;80.60
19112;BME280;9688;51.906;8.376;2024-03-17T09:03:15;101427.56;;;11.81;80.56
19112;BME280;9688;51.906;8.376;2024-03-17T09:06:01;101438.84;;;11.88;80.76
19112;BME280;9688;51.906;8.376;2024-03-17T09:08:46;101438.84;;;11.88;80.21
19112;BME280;9688;51.906;8.376;2024-03-17T09:11:31;101436.50;;;11.77;80.96
19112;BME280;9688;51.906;8.376;2024-03-17T09:14:17;101438.19;;;11.80;80.09
19112;BME280;9688;51.906;8.376;2024-03-17T09:17:02;101436.34;;;11.83;80.13
19112;BME280;9688;51.906;8.376;2024-03-17T09:19:49;101439.72;;;11.89;79.08
19112;BME280;9688;51.906;8.376;2024-03-17T09:22:36;101435.34;;;11.88;78.88
19112;BME280;9688;51.906;8.376;2024-03-17T09:25:25;101432.66;;;11.89;78.54
19112;BME280;9688;51.906;8.376;2024-03-17T09:28:10;101430.88;;;11.90;77.88
19112;BME280;9688;51.906;8.376;2024-03-17T09:30:57;101437.03;;;11.90;77.62
19112;BME280;9688;51.906;8.376;2024-03-17T09:33:43;101430.13;;;11.86;77.56
19112;BME280;9688;51.906;8.376;2024-03-17T09:36:29;101424.09;;;11.79;76.73
19112;BME280;9688;51.906;8.376;2024-03-17T09:39:15;101433.75;;;11.80;76.81
19112;BME280;9688;51.906;8.376;2024-03-17T09:42:02;101436.28;;;11.87;76.18
19112;BME280;9688;51.906;8.376;2024-03-17T09:44:49;101435.16;;;11.94;77.31
19112;BME280;9688;51.906;8.376;2024-03-17T09:47:36;101432.16;;;12.04;76.37
19112;BME280;9688;51.906;8.376;2024-03-17T09:50:22;101426.41;;;12.20;76.00
19112;BME280;9688;51.906;8.376;2024-03-17T09:53:15;101422.41;;;12.33;75.26
19112;BME280;9688;51.906;8.376;2024-03-17T09:56:08;101421.06;;;12.48;76.16
19112;BME280;9688;51.906;8.376;2024-03-17T09:58:54;101427.00;;;12.55;75.53
19112;BME280;9688;51.906;8.376;2024-03-17T10:01:39;101426.66;;;12.65;75.40
19112;BME280;9688;51.906;8.376;2024-03-17T10:04:31;101421.53;;;12.86;74.28
19112;BME280;9688;51.906;8.376;2024-03-17T10:07:17;101433.22;;;13.05;73.99
19112;BME280;9688;51.906;8.376;2024-03-17T10:10:12;101415.22;;;13.13;73.60
19112;BME280;9688;51.906;8.376;2024-03-17T10:12:58;101415.88;;;13.20;73.81
19112;BME280;9688;51.906;8.376;2024-03-17T10:15:48;101401.53;;;13.26;72.92
19112;BME280;9688;51.906;8.376;2024-03-17T10:18:34;101402.53;;;13.22;73.35
19112;BME280;9688;51.906;8.376;2024-03-17T10:21:25;101399.97;;;13.18;72.81
19112;BME280;9688;51.906;8.376;2024-03-17T10:24:12;101387.88;;;13.11;73.12
19112;BME280;9688;51.906;8.376;2024-03-17T10:27:01;101382.09;;;13.00;73.24
19112;BME280;9688;51.906;8.376;2024-03-17T10:29:47;101385.50;;;13.04;72.78
19112;BME280;9688;51.906;8.376;2024-03-17T10:32:32;101378.13;;;13.12;72.39
19112;BME280;9688;51.906;8.376;2024-03-17T10:35:29;101385.09;;;13.14;72.60
19112;BME280;9688;51.906;8.376;2024-03-17T10:38:15;101391.13;;;13.20;72.12
19112;BME280;9688;51.906;8.376;2024-03-17T10:41:00;101390.78;;;13.29;71.94
19112;BME280;9688;51.906;8.376;2024-03-17T10:43:47;101390.56;;;13.35;70.75
19112;BME280;9688;51.906;8.376;2024-03-17T10:46:33;101399.94;;;13.45;71.15
19112;BME280;9688;51.906;8.376;2024-03-17T10:49:19;101386.66;;;13.45;70.38
19112;BME280;9688;51.906;8.376;2024-03-17T10:52:08;101378.56;;;13.48;70.25
19112;BME280;9688;51.906;8.376;2024-03-17T10:55:02;101384.41;;;13.58;69.33
19112;BME280;9688;51.906;8.376;2024-03-17T10:57:54;101389.09;;;13.73;68.77
19112;BME280;9688;51.906;8.376;2024-03-17T11:00:43;101393.13;;;13.83;68.35
19112;BME280;9688;51.906;8.376;2024-03-17T11:03:32;101390.69;;;13.99;67.83
19112;BME280;9688;51.906;8.376;2024-03-17T11:06:19;101393.31;;;14.23;67.57
19112;BME280;9688;51.906;8.376;2024-03-17T11:09:06;101394.66;;;14.33;66.79
19112;BME280;9688;51.906;8.376;2024-03-17T11:11:57;101405.09;;;14.16;67.88
19112;BME280;9688;51.906;8.376;2024-03-17T11:14:43;101396.03;;;13.99;67.72
19112;BME280;9688;51.906;8.376;2024-03-17T11:17:30;101388.28;;;13.93;67.69
19112;BME280;9688;51.906;8.376;2024-03-17T11:20:17;101381.19;;;13.94;67.04
19112;BME280;9688;51.906;8.376;2024-03-17T11:23:07;101386.56;;;13.92;66.88
19112;BME280;9688;51.906;8.376;2024-03-17T11:25:53;101382.06;;;13.94;66.51
19112;BME280;9688;51.906;8.376;2024-03-17T11:28:47;101372.91;;;14.01;66.27
19112;BME280;9688;51.906;8.376;2024-03-17T11:31:40;101379.16;;;14.00;66.34
19112;BME280;9688;51.906;8.376;2024-03-17T11:34:29;101374.31;;;14.10;66.57
19112;BME280;9688;51.906;8.376;2024-03-17T11:37:42;101366.22;;;14.13;66.30
19112;BME280;9688;51.906;8.376;2024-03-17T11:40:28;101368.66;;;14.19;66.08
19112;BME280;9688;51.906;8.376;2024-03-17T11:43:16;101360.44;;;14.24;65.67
19112;BME280;9688;51.906;8.376;2024-03-17T11:46:03;101372.63;;;14.29;65.96
19112;BME280;9688;51.906;8.376;2024-03-17T11:48:47;101369.53;;;14.40;65.70
19112;BME280;9688;51.906;8.376;2024-03-17T11:51:34;101373.72;;;14.46;65.28
19112;BME280;9688;51.906;8.376;2024-03-17T11:54:20;101372.56;;;14.53;64.93
19112;BME280;9688;51.906;8.376;2024-03-17T11:57:08;101361.09;;;14.51;64.67
19112;BME280;9688;51.906;8.376;2024-03-17T11:59:56;101362.03;;;14.50;64.93
19112;BME280;9688;51.906;8.376;2024-03-17T12:02:41;101364.00;;;14.45;65.16
19112;BME280;9688;51.906;8.376;2024-03-17T12:05:26;101347.25;;;14.43;64.65
19112;BME280;9688;51.906;8.376;2024-03-17T12:08:20;101359.06;;;14.58;64.51
19112;BME280;9688;51.906;8.376;2024-03-17T12:11:16;101352.63;;;14.63;64.42
19112;BME280;9688;51.906;8.376;2024-03-17T12:14:19;101354.63;;;14.58;64.34
19112;BME280;9688;51.906;8.376;2024-03-17T12:17:06;101354.63;;;14.58;64.19
19112;BME280;9688;51.906;8.376;2024-03-17T12:19:52;101355.75;;;14.51;64.53
19112;BME280;9688;51.906;8.376;2024-03-17T12:22:37;101357.28;;;14.58;64.22
19112;BME280;9688;51.906;8.376;2024-03-17T12:25:25;101346.06;;;14.70;63.75
19112;BME280;9688;51.906;8.376;2024-03-17T12:28:15;101346.31;;;14.85;63.42
19112;BME280;9688;51.906;8.376;2024-03-17T12:31:00;101346.50;;;15.01;63.17
19112;BME280;9688;51.906;8.376;2024-03-17T12:33:46;101345.94;;;15.13;62.54
19112;BME280;9688;51.906;8.376;2024-03-17T12:36:32;101343.88;;;15.20;62.87
19112;BME280;9688;51.906;8.376;2024-03-17T12:39:18;101347.47;;;15.37;62.13
19112;BME280;9688;51.906;8.376;2024-03-17T12:42:06;101343.94;;;15.37;62.28
19112;BME280;9688;51.906;8.376;2024-03-17T12:44:52;101337.72;;;15.38;62.23
19112;BME280;9688;51.906;8.376;2024-03-17T12:47:37;101332.09;;;15.44;61.91
19112;BME280;9688;51.906;8.376;2024-03-17T12:50:22;101332.84;;;15.46;61.83
19112;BME280;9688;51.906;8.376;2024-03-17T12:53:15;101333.72;;;15.28;62.09
19112;BME280;9688;51.906;8.376;2024-03-17T12:56:00;101331.72;;;15.14;62.22
19112;BME280;9688;51.906;8.376;2024-03-17T12:59:16;101326.28;;;15.15;62.33
19112;BME280;9688;51.906;8.376;2024-03-17T13:02:18;101328.91;;;15.17;61.91
19112;BME280;9688;51.906;8.376;2024-03-17T13:05:21;101332.06;;;15.25;62.11
19112;BME280;9688;51.906;8.376;2024-03-17T13:08:08;101323.78;;;15.31;61.82
19112;BME280;9688;51.906;8.376;2024-03-17T13:10:53;101317.47;;;15.34;62.22
19112;BME280;9688;51.906;8.376;2024-03-17T13:13:38;101317.50;;;15.32;61.86
19112;BME280;9688;51.906;8.376;2024-03-17T13:16:25;101310.25;;;15.36;61.34
19112;BME280;9688;51.906;8.376;2024-03-17T13:19:11;101298.00;;;15.32;61.08
19112;BME280;9688;51.906;8.376;2024-03-17T13:21:57;101304.28;;;15.12;61.80
19112;BME280;9688;51.906;8.376;2024-03-17T13:24:43;101289.59;;;15.03;61.87
19112;BME280;9688;51.906;8.376;2024-03-17T13:27:28;101287.88;;;15.02;61.97
19112;BME280;9688;51.906;8.376;2024-03-17T13:30:14;101282.56;;;15.02;61.87
19112;BME280;9688;51.906;8.376;2024-03-17T13:33:01;101274.13;;;15.11;62.06
19112;BME280;9688;51.906;8.376;2024-03-17T13:35:48;101280.97;;;15.17;61.74
19112;BME280;9688;51.906;8.376;2024-03-17T13:38:34;101270.00;;;15.23;61.65
19112;BME280;9688;51.906;8.376;2024-03-17T13:41:19;101274.13;;;15.30;61.34
19112;BME280;9688;51.906;8.376;2024-03-17T13:44:04;101270.50;;;15.31;61.43
19112;BME280;9688;51.906;8.376;2024-03-17T13:46:49;101268.84;;;15.29;61.21
19112;BME280;9688;51.906;8.376;2024-03-17T13:49:37;101254.81;;;15.25;61.72
19112;BME280;9688;51.906;8.376;2024-03-17T13:52:22;101252.22;;;15.24;61.43
19112;BME280;9688;51.906;8.376;2024-03-17T13:55:13;101250.34;;;15.26;61.28
19112;BME280;9688;51.906;8.376;2024-03-17T13:57:58;101246.84;;;15.25;62.09
19112;BME280;9688;51.906;8.376;2024-03-17T14:00:44;101251.22;;;15.26;61.48
19112;BME280;9688;51.906;8.376;2024-03-17T14:03:29;101242.38;;;15.26;61.55
19112;BME280;9688;51.906;8.376;2024-03-17T14:06:18;101235.22;;;15.26;61.03
19112;BME280;9688;51.906;8.376;2024-03-17T14:09:03;101237.13;;;15.24;61.47
19112;BME280;9688;51.906;8.376;2024-03-17T14:11:53;101234.88;;;15.15;61.69
19112;BME280;9688;51.906;8.376;2024-03-17T14:14:38;101237.84;;;15.09;61.66
19112;BME280;9688;51.906;8.376;2024-03-17T14:17:23;101231.72;;;15.07;61.53
19112;BME280;9688;51.906;8.376;2024-03-17T14:20:09;101217.84;;;15.00;61.60
19112;BME280;9688;51.906;8.376;2024-03-17T14:22:56;101220.50;;;15.00;61.99
19112;BME280;9688;51.906;8.376;2024-03-17T14:25:42;101217.13;;;14.97;61.81
19112;BME280;9688;51.906;8.376;2024-03-17T14:28:27;101215.38;;;14.95;62.57
19112;BME280;9688;51.906;8.376;2024-03-17T14:31:13;101207.00;;;14.86;62.58
19112;BME280;9688;51.906;8.376;2024-03-17T14:33:58;101200.91;;;14.82;62.63
19112;BME280;9688;51.906;8.376;2024-03-17T14:36:44;101193.22;;;14.76;62.92
19112;BME280;9688;51.906;8.376;2024-03-17T14:39:31;101189.50;;;14.80;62.83
19112;BME280;9688;51.906;8.376;2024-03-17T14:42:16;101193.59;;;14.87;62.89
19112;BME280;9688;51.906;8.376;2024-03-17T14:45:02;101186.53;;;14.86;63.04